createdAt,value
2022-07-26T00:01:49.545Z,19.91
2022-07-26T00:04:19.320Z,19.89
2022-07-26T00:06:51.419Z,19.85
2022-07-26T00:09:22.992Z,19.82
2022-07-26T00:11:52.845Z,19.80
2022-07-26T00:14:22.565Z,19.77
2022-07-26T00:16:52.784Z,19.77
2022-07-26T00:19:23.100Z,19.74
2022-07-26T00:21:54.699Z,19.73
2022-07-26T00:24:24.341Z,19.70
2022-07-26T00:26:55.828Z,19.65
2022-07-26T00:29:47.543Z,19.63
2022-07-26T00:32:17.416Z,19.61
2022-07-26T00:34:46.582Z,19.58
2022-07-26T00:37:20.380Z,19.54
2022-07-26T00:39:48.740Z,19.52
2022-07-26T00:42:18.606Z,19.49
2022-07-26T00:44:49.042Z,19.47
2022-07-26T00:47:20.101Z,19.40
2022-07-26T00:49:49.221Z,19.31
2022-07-26T00:52:19.639Z,19.25
2022-07-26T00:54:49.128Z,19.20
2022-07-26T00:57:20.441Z,19.18
2022-07-26T00:59:50.769Z,19.13
2022-07-26T01:02:22.796Z,19.11
2022-07-26T01:04:51.920Z,19.07
2022-07-26T01:07:22.664Z,19.03
2022-07-26T01:09:52.547Z,18.99
2022-07-26T01:12:23.714Z,18.92
2022-07-26T01:14:52.763Z,18.88
2022-07-26T01:17:22.443Z,18.82
2022-07-26T01:19:52.054Z,18.78
2022-07-26T01:22:22.154Z,18.77
2022-07-26T01:24:52.633Z,18.77
2022-07-26T01:27:23.795Z,18.78
2022-07-26T01:29:53.651Z,18.77
2022-07-26T01:32:22.893Z,18.77
2022-07-26T01:34:53.067Z,18.75
2022-07-26T01:37:23.526Z,18.73
2022-07-26T01:39:53.638Z,18.73
2022-07-26T01:42:23.661Z,18.68
2022-07-26T01:44:53.886Z,18.62
2022-07-26T01:47:23.758Z,18.57
2022-07-26T01:49:53.486Z,18.55
2022-07-26T01:52:24.088Z,18.52
2022-07-26T01:54:53.108Z,18.53
2022-07-26T01:57:24.503Z,18.55
2022-07-26T01:59:55.676Z,18.53
2022-07-26T02:02:26.671Z,18.50
2022-07-26T02:04:58.724Z,18.47
2022-07-26T02:07:31.767Z,18.40
2022-07-26T02:10:02.306Z,18.36
2022-07-26T02:12:32.561Z,18.34
2022-07-26T02:15:01.720Z,18.32
2022-07-26T02:17:30.963Z,18.29
2022-07-26T02:20:00.697Z,18.20
2022-07-26T02:22:30.330Z,18.18
2022-07-26T02:25:04.740Z,18.19
2022-07-26T02:27:31.394Z,18.22
2022-07-26T02:30:01.977Z,18.24
2022-07-26T02:32:32.324Z,18.20
2022-07-26T02:35:02.294Z,18.15
2022-07-26T02:37:31.438Z,18.15
2022-07-26T02:40:03.131Z,18.15
2022-07-26T02:42:32.933Z,18.17
2022-07-26T02:45:02.407Z,18.14
2022-07-26T02:47:33.169Z,18.10
2022-07-26T02:50:02.778Z,18.02
2022-07-26T02:52:33.035Z,18.00
2022-07-26T02:55:02.624Z,18.00
2022-07-26T02:57:31.702Z,18.01
2022-07-26T03:00:03.668Z,18.03
2022-07-26T03:02:33.637Z,18.01
2022-07-26T03:05:03.423Z,18.01
2022-07-26T03:07:33.575Z,18.04
2022-07-26T03:10:02.873Z,18.05
2022-07-26T03:12:32.831Z,18.08
2022-07-26T03:15:01.962Z,18.11
2022-07-26T03:17:32.404Z,18.09
2022-07-26T03:20:02.464Z,18.09
2022-07-26T03:22:32.214Z,18.11
2022-07-26T03:25:02.549Z,18.12
2022-07-26T03:27:33.400Z,18.16
2022-07-26T03:30:03.252Z,18.20
2022-07-26T03:32:32.360Z,18.23
2022-07-26T03:35:01.499Z,18.20
2022-07-26T03:37:45.084Z,18.22
2022-07-26T03:40:02.777Z,18.24
2022-07-26T03:42:32.463Z,18.20
2022-07-26T03:45:02.303Z,18.21
2022-07-26T03:47:31.940Z,18.23
2022-07-26T03:50:02.460Z,18.24
2022-07-26T03:52:32.964Z,18.28
2022-07-26T03:55:04.682Z,18.32
2022-07-26T03:57:34.928Z,18.38
2022-07-26T04:00:06.268Z,18.44
2022-07-26T04:02:37.671Z,18.49
2022-07-26T04:05:07.444Z,18.55
2022-07-26T04:07:53.336Z,18.60
2022-07-26T04:10:17.320Z,18.63
2022-07-26T04:12:48.706Z,18.66
2022-07-26T04:15:19.341Z,18.72
2022-07-26T04:17:49.859Z,18.78
2022-07-26T04:20:20.204Z,18.83
2022-07-26T04:22:51.405Z,18.85
2022-07-26T04:25:21.840Z,18.88
2022-07-26T04:27:52.188Z,18.91
2022-07-26T04:30:21.944Z,18.93
2022-07-26T04:32:51.843Z,18.99
2022-07-26T04:35:22.125Z,19.02
2022-07-26T04:37:51.083Z,19.07
2022-07-26T04:40:23.457Z,19.10
2022-07-26T04:42:52.671Z,19.11
2022-07-26T04:45:22.559Z,19.13
2022-07-26T04:47:52.336Z,19.18
2022-07-26T04:50:22.719Z,19.21
2022-07-26T04:52:53.108Z,19.25
2022-07-26T04:55:23.714Z,19.31
2022-07-26T04:57:53.361Z,19.37
2022-07-26T05:00:24.792Z,19.40
2022-07-26T05:02:57.665Z,19.45
2022-07-26T05:05:30.092Z,19.55
2022-07-26T05:08:02.875Z,19.73
2022-07-26T05:10:37.339Z,19.92
2022-07-26T05:13:08.422Z,20.15
2022-07-26T05:15:38.743Z,20.42
2022-07-26T05:18:10.666Z,20.64
2022-07-26T05:20:40.613Z,20.87
2022-07-26T05:23:11.232Z,21.07
2022-07-26T05:25:41.705Z,21.30
2022-07-26T05:28:11.615Z,21.51
2022-07-26T05:30:40.873Z,21.71
2022-07-26T05:33:11.215Z,21.95
2022-07-26T05:35:42.001Z,22.17
2022-07-26T05:38:10.845Z,22.35
2022-07-26T05:40:43.165Z,22.56
2022-07-26T05:43:13.726Z,22.82
2022-07-26T05:45:43.479Z,23.12
2022-07-26T05:48:12.905Z,23.41
2022-07-26T05:50:42.433Z,23.58
2022-07-26T05:53:12.865Z,23.72
2022-07-26T05:55:42.722Z,23.85
2022-07-26T05:58:12.089Z,24.02
2022-07-26T06:00:45.400Z,24.17
2022-07-26T06:03:23.629Z,24.33
2022-07-26T06:05:56.602Z,24.53
2022-07-26T06:08:26.826Z,24.75
2022-07-26T06:10:57.075Z,25.02
2022-07-26T06:13:26.708Z,25.14
2022-07-26T06:15:56.065Z,25.11
2022-07-26T06:18:25.540Z,25.17
2022-07-26T06:20:55.825Z,25.27
2022-07-26T06:23:33.976Z,25.42
2022-07-26T06:25:58.822Z,25.51
2022-07-26T06:28:28.849Z,25.54
2022-07-26T06:30:58.965Z,25.58
2022-07-26T06:33:29.334Z,25.78
2022-07-26T06:35:58.868Z,25.88
2022-07-26T06:38:29.285Z,25.86
2022-07-26T06:41:01.284Z,26.08
2022-07-26T06:43:30.523Z,26.37
2022-07-26T06:46:00.953Z,26.57
2022-07-26T06:48:30.534Z,26.72
2022-07-26T06:51:01.248Z,26.73
2022-07-26T06:53:31.497Z,26.71
2022-07-26T06:56:01.080Z,26.64
2022-07-26T06:58:31.522Z,26.60
2022-07-26T07:01:01.790Z,26.68
2022-07-26T07:03:31.724Z,26.90
2022-07-26T07:06:01.876Z,27.08
2022-07-26T07:08:32.470Z,27.16
2022-07-26T07:11:02.777Z,27.26
2022-07-26T07:13:34.223Z,27.31
2022-07-26T07:16:04.213Z,27.35
2022-07-26T07:18:35.703Z,27.36
2022-07-26T07:21:05.952Z,27.38
2022-07-26T07:23:35.534Z,27.40
2022-07-26T07:26:04.838Z,27.35
2022-07-26T07:28:36.031Z,27.55
2022-07-26T07:31:06.304Z,27.55
2022-07-26T07:33:43.607Z,27.56
2022-07-26T07:36:10.425Z,27.50
2022-07-26T07:38:42.834Z,27.60
2022-07-26T07:41:13.448Z,27.81
2022-07-26T07:43:46.075Z,27.83
2022-07-26T07:46:17.253Z,27.83
2022-07-26T07:48:47.664Z,27.86
2022-07-26T07:51:19.235Z,27.97
2022-07-26T07:53:56.634Z,28.13
2022-07-26T07:56:22.148Z,28.35
2022-07-26T07:58:54.468Z,28.60
2022-07-26T08:01:24.713Z,28.86
2022-07-26T08:03:57.112Z,29.11
2022-07-26T08:06:27.549Z,29.25
2022-07-26T08:08:57.979Z,29.47
2022-07-26T08:11:30.027Z,29.54
2022-07-26T08:13:59.786Z,29.75
2022-07-26T08:16:30.670Z,29.88
2022-07-26T08:19:01.179Z,29.82
2022-07-26T08:21:33.693Z,29.82
2022-07-26T08:24:04.092Z,29.77
2022-07-26T08:26:33.512Z,29.75
2022-07-26T08:29:04.038Z,29.68
2022-07-26T08:31:34.219Z,29.81
2022-07-26T08:34:04.921Z,29.90
2022-07-26T08:36:34.988Z,29.89
2022-07-26T08:39:04.442Z,29.95
2022-07-26T08:41:33.369Z,30.07
2022-07-26T08:44:08.837Z,30.14
2022-07-26T08:46:39.515Z,30.10
2022-07-26T08:49:11.054Z,30.14
2022-07-26T08:51:43.662Z,30.16
2022-07-26T08:54:15.658Z,30.15
2022-07-26T08:56:53.440Z,29.96
2022-07-26T08:59:24.784Z,29.86
2022-07-26T09:02:02.468Z,29.84
2022-07-26T09:04:43.989Z,29.78
2022-07-26T09:07:17.026Z,29.83
2022-07-26T09:10:01.179Z,29.81
2022-07-26T09:12:32.526Z,29.76
2022-07-26T09:15:07.369Z,29.72
2022-07-26T09:17:46.973Z,29.77
2022-07-26T09:20:24.372Z,29.57
2022-07-26T09:23:10.170Z,29.33
2022-07-26T09:25:43.675Z,29.03
2022-07-26T09:28:26.463Z,28.82
2022-07-26T09:31:03.055Z,28.71
2022-07-26T09:33:50.760Z,28.52
2022-07-26T09:36:21.530Z,28.30
2022-07-26T09:38:53.401Z,28.12
2022-07-26T09:41:27.784Z,27.93
2022-07-26T09:44:00.124Z,27.85
2022-07-26T09:46:30.614Z,27.82
2022-07-26T09:49:11.229Z,27.74
2022-07-26T09:51:42.584Z,27.61
2022-07-26T09:54:13.197Z,27.44
2022-07-26T09:56:51.665Z,27.30
2022-07-26T09:59:25.444Z,27.17
2022-07-26T10:01:56.352Z,27.16
2022-07-26T10:04:25.759Z,27.12
2022-07-26T10:07:02.189Z,27.11
2022-07-26T10:09:55.405Z,27.23
2022-07-26T10:12:30.600Z,27.25
2022-07-26T10:14:59.199Z,27.19
2022-07-26T10:17:40.926Z,27.10
2022-07-26T10:20:19.446Z,27.04
2022-07-26T10:22:48.115Z,27.06
2022-07-26T10:25:26.017Z,27.05
2022-07-26T10:27:57.650Z,26.94
2022-07-26T10:30:34.251Z,26.78
2022-07-26T10:33:09.753Z,26.70
2022-07-26T10:35:41.446Z,26.74
2022-07-26T10:38:26.134Z,26.82
2022-07-26T10:41:02.937Z,26.89
2022-07-26T10:43:42.289Z,26.92
2022-07-26T10:46:24.353Z,26.95
2022-07-26T10:49:05.089Z,26.95
2022-07-26T10:51:38.218Z,26.82
2022-07-26T10:54:13.685Z,26.79
2022-07-26T10:56:43.596Z,26.78
2022-07-26T10:59:12.389Z,26.72
2022-07-26T11:01:45.263Z,26.62
2022-07-26T11:04:22.208Z,26.58
2022-07-26T11:06:50.811Z,26.59
2022-07-26T11:09:21.131Z,26.55
2022-07-26T11:11:52.175Z,26.52
2022-07-26T11:14:21.605Z,26.65
2022-07-26T11:16:55.918Z,26.69
2022-07-26T11:19:26.426Z,26.65
2022-07-26T11:22:01.682Z,26.65
2022-07-26T11:24:31.723Z,26.68
2022-07-26T11:27:04.882Z,26.74
2022-07-26T11:29:38.961Z,26.77
2022-07-26T11:32:14.737Z,26.84
2022-07-26T11:34:41.099Z,26.93
2022-07-26T11:37:10.909Z,26.95
2022-07-26T11:39:40.367Z,26.96
2022-07-26T11:42:11.528Z,26.94
2022-07-26T11:44:45.030Z,26.95
2022-07-26T11:47:20.456Z,26.93
2022-07-26T11:50:12.424Z,26.82
2022-07-26T11:52:25.618Z,26.82
2022-07-26T11:54:54.911Z,26.84
2022-07-26T11:57:30.171Z,26.90
2022-07-26T12:00:01.965Z,26.90
2022-07-26T12:02:34.322Z,26.92
2022-07-26T12:05:20.166Z,26.91
2022-07-26T12:08:03.904Z,26.87
2022-07-26T12:10:34.173Z,26.86
2022-07-26T12:13:16.190Z,26.81
2022-07-26T12:15:52.181Z,26.85
2022-07-26T12:18:24.592Z,26.82
2022-07-26T12:21:06.727Z,26.82
2022-07-26T12:23:50.995Z,26.89
2022-07-26T12:26:28.582Z,26.87
2022-07-26T12:29:00.544Z,26.89
2022-07-26T12:31:32.865Z,26.95
2022-07-26T12:34:02.511Z,26.98
2022-07-26T12:36:33.289Z,26.97
2022-07-26T12:39:03.154Z,26.96
2022-07-26T12:41:38.723Z,26.92
2022-07-26T12:44:10.633Z,26.84
2022-07-26T12:46:39.972Z,26.83
2022-07-26T12:49:10.830Z,26.84
2022-07-26T12:51:41.844Z,26.86
2022-07-26T12:54:12.484Z,26.88
2022-07-26T12:56:42.626Z,26.94
2022-07-26T12:59:17.620Z,26.94
2022-07-26T13:01:44.255Z,26.95
2022-07-26T13:04:13.822Z,26.91
2022-07-26T13:06:43.270Z,26.88
2022-07-26T13:09:12.741Z,26.89
2022-07-26T13:11:43.750Z,26.94
2022-07-26T13:14:17.305Z,27.00
2022-07-26T13:16:48.832Z,27.05
2022-07-26T13:19:18.757Z,27.09
2022-07-26T13:21:52.757Z,27.09
2022-07-26T13:24:20.149Z,27.07
2022-07-26T13:26:50.305Z,27.01
2022-07-26T13:29:20.085Z,26.93
2022-07-26T13:31:50.792Z,26.91
2022-07-26T13:34:20.536Z,26.92
2022-07-26T13:36:50.204Z,26.92
2022-07-26T13:39:20.707Z,26.90
2022-07-26T13:41:50.200Z,26.93
2022-07-26T13:44:22.186Z,26.95
2022-07-26T13:46:51.420Z,26.99
2022-07-26T13:49:21.388Z,26.99
2022-07-26T13:51:58.707Z,26.96
2022-07-26T13:54:33.056Z,26.99
2022-07-26T13:57:04.246Z,27.05
2022-07-26T13:59:34.101Z,27.10
2022-07-26T14:02:04.699Z,27.10
2022-07-26T14:04:34.907Z,27.07
2022-07-26T14:07:05.486Z,27.09
2022-07-26T14:09:34.995Z,27.12
2022-07-26T14:12:06.210Z,27.13
2022-07-26T14:14:38.141Z,27.12
2022-07-26T14:17:08.140Z,27.11
2022-07-26T14:19:37.418Z,27.07
2022-07-26T14:22:08.077Z,27.04
2022-07-26T14:24:38.011Z,27.01
2022-07-26T14:27:07.406Z,27.02
2022-07-26T14:29:37.395Z,27.01
2022-07-26T14:32:07.557Z,27.01
2022-07-26T14:34:36.720Z,27.02
2022-07-26T14:37:43.571Z,27.01
2022-07-26T14:39:40.676Z,27.03
2022-07-26T14:42:10.582Z,27.05
2022-07-26T14:44:44.387Z,27.06
2022-07-26T14:47:13.782Z,27.08
2022-07-26T14:49:43.318Z,27.12
2022-07-26T14:52:12.643Z,27.14
2022-07-26T14:54:43.357Z,27.15
2022-07-26T14:57:13.764Z,27.15
2022-07-26T14:59:43.407Z,27.15
2022-07-26T15:02:13.359Z,27.17
2022-07-26T15:04:42.734Z,27.19
2022-07-26T15:07:13.123Z,27.13
2022-07-26T15:09:43.252Z,27.13
2022-07-26T15:12:13.755Z,27.10
2022-07-26T15:14:44.864Z,27.05
2022-07-26T15:17:15.177Z,27.02
2022-07-26T15:19:44.331Z,27.01
2022-07-26T15:22:14.790Z,26.99
2022-07-26T15:24:44.574Z,26.99
2022-07-26T15:27:14.250Z,26.98
2022-07-26T15:29:43.633Z,26.97
2022-07-26T15:32:13.678Z,26.98
2022-07-26T15:34:43.488Z,26.97
2022-07-26T15:37:13.110Z,26.98
2022-07-26T15:39:42.657Z,26.94
2022-07-26T15:42:11.731Z,26.90
2022-07-26T15:44:43.414Z,26.84
2022-07-26T15:47:26.166Z,26.80
2022-07-26T15:49:48.097Z,26.76
2022-07-26T15:52:16.897Z,26.73
2022-07-26T15:54:45.976Z,26.71
2022-07-26T15:57:16.436Z,26.70
2022-07-26T15:59:46.700Z,26.69
2022-07-26T16:02:17.748Z,26.67
2022-07-26T16:04:48.111Z,26.65
2022-07-26T16:07:18.486Z,26.63
2022-07-26T16:09:48.025Z,26.62
2022-07-26T16:12:18.588Z,26.60
2022-07-26T16:14:48.169Z,26.58
2022-07-26T16:17:17.703Z,26.54
2022-07-26T16:19:47.879Z,26.48
2022-07-26T16:22:19.187Z,26.45
2022-07-26T16:24:49.289Z,26.42
2022-07-26T16:27:19.402Z,26.41
2022-07-26T16:29:52.098Z,26.41
2022-07-26T16:32:21.409Z,26.40
2022-07-26T16:34:51.564Z,26.39
2022-07-26T16:37:20.595Z,26.37
2022-07-26T16:39:52.201Z,26.35
2022-07-26T16:42:21.695Z,26.32
2022-07-26T16:44:51.232Z,26.29
2022-07-26T16:47:23.438Z,26.30
2022-07-26T16:49:52.517Z,26.28
2022-07-26T16:52:22.661Z,26.26
2022-07-26T16:54:53.679Z,26.25
2022-07-26T16:57:24.073Z,26.21
2022-07-26T16:59:55.204Z,26.19
2022-07-26T17:02:25.138Z,26.18
2022-07-26T17:04:57.188Z,26.16
2022-07-26T17:07:28.266Z,26.12
2022-07-26T17:09:57.979Z,26.12
2022-07-26T17:12:27.963Z,26.10
2022-07-26T17:14:59.395Z,26.09
2022-07-26T17:17:28.785Z,26.06
2022-07-26T17:19:58.774Z,26.05
2022-07-26T17:22:28.972Z,26.03
2022-07-26T17:24:59.853Z,26.00
2022-07-26T17:27:29.952Z,25.96
2022-07-26T17:30:06.071Z,25.94
2022-07-26T17:32:31.838Z,25.91
2022-07-26T17:35:01.034Z,25.86
2022-07-26T17:37:30.421Z,25.83
2022-07-26T17:40:02.211Z,25.80
2022-07-26T17:42:34.095Z,25.76
2022-07-26T17:45:05.027Z,25.68
2022-07-26T17:47:34.709Z,25.62
2022-07-26T17:50:35.277Z,25.52
2022-07-26T17:52:38.370Z,25.40
2022-07-26T17:55:08.665Z,25.27
2022-07-26T17:57:40.048Z,25.11
2022-07-26T18:00:10.859Z,24.99
2022-07-26T18:02:41.237Z,24.88
2022-07-26T18:05:11.713Z,24.77
2022-07-26T18:08:02.483Z,24.68
2022-07-26T18:10:32.978Z,24.60
2022-07-26T18:13:04.034Z,24.51
2022-07-26T18:15:34.927Z,24.47
2022-07-26T18:18:07.640Z,24.38
2022-07-26T18:20:38.514Z,24.28
2022-07-26T18:23:08.683Z,24.22
2022-07-26T18:25:39.495Z,24.16
2022-07-26T18:28:10.746Z,24.11
2022-07-26T18:30:40.507Z,24.04
2022-07-26T18:33:13.025Z,24.01
2022-07-26T18:35:43.440Z,23.98
2022-07-26T18:38:12.643Z,23.94
2022-07-26T18:40:41.906Z,23.90
2022-07-26T18:43:11.391Z,23.85
2022-07-26T18:45:41.438Z,23.76
2022-07-26T18:48:13.059Z,23.68
2022-07-26T18:50:43.845Z,23.64
2022-07-26T18:53:13.241Z,23.55
2022-07-26T18:55:43.998Z,23.51
2022-07-26T18:58:13.881Z,23.45
2022-07-26T19:00:43.904Z,23.37
2022-07-26T19:03:16.437Z,23.27
2022-07-26T19:05:47.265Z,23.19
2022-07-26T19:08:16.458Z,23.13
2022-07-26T19:10:46.508Z,23.09
2022-07-26T19:13:17.893Z,22.99
2022-07-26T19:15:48.144Z,22.92
2022-07-26T19:18:17.611Z,22.87
2022-07-26T19:20:47.589Z,22.83
2022-07-26T19:23:17.704Z,22.76
2022-07-26T19:25:47.285Z,22.69
2022-07-26T19:28:18.229Z,22.64
2022-07-26T19:30:48.231Z,22.61
2022-07-26T19:33:18.331Z,22.60
2022-07-26T19:35:48.362Z,22.59
2022-07-26T19:38:18.960Z,22.50
2022-07-26T19:40:48.532Z,22.37
2022-07-26T19:43:19.160Z,22.30
2022-07-26T19:45:49.904Z,22.24
2022-07-26T19:48:19.945Z,22.20
2022-07-26T19:50:50.901Z,22.20
2022-07-26T19:53:21.157Z,22.14
2022-07-26T19:55:50.281Z,22.08
2022-07-26T19:58:21.424Z,22.02
2022-07-26T20:00:52.796Z,21.97
2022-07-26T20:03:22.823Z,21.91
2022-07-26T20:05:53.770Z,21.83
2022-07-26T20:08:24.767Z,21.72
2022-07-26T20:10:55.132Z,21.68
2022-07-26T20:13:26.037Z,21.63
2022-07-26T20:15:56.237Z,21.63
2022-07-26T20:18:28.157Z,21.60
2022-07-26T20:20:57.636Z,21.60
2022-07-26T20:23:28.823Z,21.61
2022-07-26T20:25:59.104Z,21.53
2022-07-26T20:28:28.837Z,21.44
2022-07-26T20:30:58.020Z,21.41
2022-07-26T20:33:28.277Z,21.42
2022-07-26T20:35:58.258Z,21.42
2022-07-26T20:38:28.173Z,21.39
2022-07-26T20:40:58.115Z,21.32
2022-07-26T20:43:31.611Z,21.28
2022-07-26T20:46:01.909Z,21.29
2022-07-26T20:48:33.661Z,21.27
2022-07-26T20:51:05.378Z,21.26
2022-07-26T20:53:36.878Z,21.23
2022-07-26T20:56:07.289Z,21.21
2022-07-26T20:58:37.997Z,21.18
2022-07-26T21:01:07.757Z,21.10
2022-07-26T21:03:37.998Z,21.01
2022-07-26T21:06:08.380Z,21.00
2022-07-26T21:08:40.286Z,20.99
2022-07-26T21:11:10.791Z,20.96
2022-07-26T21:13:41.458Z,20.94
2022-07-26T21:16:11.163Z,20.89
2022-07-26T21:18:43.393Z,20.89
2022-07-26T21:21:16.310Z,20.87
2022-07-26T21:23:46.082Z,20.83
2022-07-26T21:26:15.066Z,20.81
2022-07-26T21:28:48.574Z,20.77
2022-07-26T21:31:19.386Z,20.73
2022-07-26T21:33:49.028Z,20.73
2022-07-26T21:36:19.144Z,20.64
2022-07-26T21:38:48.471Z,20.60
2022-07-26T21:41:21.820Z,20.60
2022-07-26T21:43:51.694Z,20.58
2022-07-26T21:46:28.886Z,20.57
2022-07-26T21:49:00.991Z,20.55
2022-07-26T21:51:31.278Z,20.54
2022-07-26T21:54:00.301Z,20.53
2022-07-26T21:56:32.770Z,20.52
2022-07-26T21:59:03.421Z,20.51
2022-07-26T22:01:33.338Z,20.48
2022-07-26T22:04:03.135Z,20.45
2022-07-26T22:06:32.512Z,20.41
2022-07-26T22:09:02.550Z,20.36
2022-07-26T22:11:32.952Z,20.33
2022-07-26T22:14:03.234Z,20.31
2022-07-26T22:16:33.913Z,20.31
2022-07-26T22:19:03.022Z,20.26
2022-07-26T22:21:33.397Z,20.17
2022-07-26T22:24:02.461Z,20.09
2022-07-26T22:26:33.469Z,20.05
2022-07-26T22:29:03.860Z,19.99
2022-07-26T22:31:33.369Z,19.99
2022-07-26T22:34:03.354Z,19.98
2022-07-26T22:36:32.123Z,19.99
2022-07-26T22:39:03.087Z,19.98
2022-07-26T22:41:46.188Z,19.95
2022-07-26T22:44:05.436Z,19.94
2022-07-26T22:46:37.968Z,19.91
2022-07-26T22:49:12.815Z,19.89
2022-07-26T22:51:40.819Z,19.90
2022-07-26T22:54:09.981Z,19.88
2022-07-26T22:56:39.111Z,19.89
2022-07-26T22:59:09.381Z,19.90
2022-07-26T23:01:40.622Z,19.86
2022-07-26T23:04:10.414Z,19.82
2022-07-26T23:06:40.690Z,19.80
2022-07-26T23:09:11.654Z,19.77
2022-07-26T23:11:41.119Z,19.76
2022-07-26T23:14:11.416Z,19.76
2022-07-26T23:16:41.367Z,19.72
2022-07-26T23:19:11.617Z,19.68
2022-07-26T23:21:42.768Z,19.61
2022-07-26T23:24:12.582Z,19.57
2022-07-26T23:26:42.504Z,19.52
2022-07-26T23:29:12.739Z,19.49
2022-07-26T23:31:42.798Z,19.47
2022-07-26T23:34:11.947Z,19.46
2022-07-26T23:36:42.282Z,19.47
2022-07-26T23:39:12.350Z,19.47
2022-07-26T23:41:42.678Z,19.45
2022-07-26T23:44:11.670Z,19.43
2022-07-26T23:46:42.304Z,19.43
2022-07-26T23:49:13.168Z,19.44
2022-07-26T23:51:44.459Z,19.44
2022-07-26T23:54:13.561Z,19.45
2022-07-26T23:56:44.773Z,19.44
2022-07-26T23:59:15.960Z,19.41
